Colliers, South Carolina
Current Conditions -  °F | °C
As of 6:53 PM on Monday 22 Dec 2014 (Local Time) from KDNL Reporting Station
Overcast Overcast  
Wind Chill: 41°   Ceiling: 600
Heat Index: 46°   Visibility: 10mi
Dew Point: 44°   Wind: 9mph
Humidity: 93%   Direction: 50°NE
Pressure: 29.98"   Gusts: NA
Location:  33.727°N, 82.1937°W
Report Text: KDNL 222353Z AUTO 05008KT 10SM OVC006 08/07 A2998 RMK AO2 SLP153 60011 T00780067 10083 20078 51001
Loading
Personal Weather Stations






























Interactive Weather Map New forecast layout! Learn more

10-Day Weather Forecast

Advertisements
Track Severe Weather on mobile